Time;durP1;ratioP1;P1;durP2;ratioP2;P2;SDS_P1;SDS_P2;PMS_P1;PMS_P2;Temp;Humidity;BMP_temperature;BMP_pressure;BME280_temperature;BME280_humidity;BME280_pressure;Samples;Min_cycle;Max_cycle;Signal;HPM_P1;HPM_P2
2022/04/14 00:02:24;;;;;;;9.55;3.53;;;;;;;;;;4938801;29;20492;-88
2022/04/14 00:04:49;;;;;;;5.53;3.10;;;12.50;99.90;;;;;;4921044;29;20189;-89
2022/04/14 00:07:15;;;;;;;4.73;3.10;;;12.10;99.90;;;;;;4925009;29;20468;-87
2022/04/14 00:09:41;;;;;;;6.90;2.83;;;12.70;99.90;;;;;;4921772;29;20844;-87
2022/04/14 00:12:07;;;;;;;5.68;3.00;;;14.00;99.90;;;;;;4937425;29;20235;-89
2022/04/14 00:14:33;;;;;;;6.73;2.97;;;;;;;;;;4933190;29;20272;-89
2022/04/14 00:16:59;;;;;;;10.43;4.07;;;;;;;;;;4937074;29;20974;-88
2022/04/14 00:19:25;;;;;;;10.33;3.07;;;12.40;99.90;;;;;;4935806;29;20436;-88
2022/04/14 00:21:51;;;;;;;5.63;3.07;;;;;;;;;;4918846;29;20459;-88
2022/04/14 00:24:16;;;;;;;9.37;3.60;;;12.20;99.90;;;;;;4937483;29;20188;-88
2022/04/14 00:26:44;;;;;;;6.07;4.00;;;12.10;99.90;;;;;;4916349;29;20460;-88
2022/04/14 00:29:13;;;;;;;4.50;2.95;;;;;;;;;;4918786;29;20188;-88
2022/04/14 00:31:39;;;;;;;7.72;3.67;;;;;;;;;;4920877;29;20191;-88
2022/04/14 00:34:05;;;;;;;10.60;3.67;;;;;;;;;;4919504;29;20181;-88
2022/04/14 00:36:33;;;;;;;4.33;2.87;;;;;;;;;;4935797;29;20502;-88
2022/04/14 00:38:59;;;;;;;6.03;3.50;;;;;;;;;;4936017;29;20436;-88
2022/04/14 00:41:27;;;;;;;4.45;3.50;;;;;;;;;;4935946;29;20655;-86
2022/04/14 00:43:53;;;;;;;4.45;3.42;;;12.10;99.90;;;;;;4916538;29;20838;-89
2022/04/14 00:46:19;;;;;;;8.85;3.97;;;;;;;;;;4916312;29;21767;-87
2022/04/14 00:48:45;;;;;;;4.72;2.90;;;;;;;;;;4928794;29;20228;-87
2022/04/14 00:51:11;;;;;;;6.32;3.38;;;11.90;99.90;;;;;;4919773;29;20221;-89
2022/04/14 00:53:37;;;;;;;7.70;3.30;;;;;;;;;;4931176;29;20172;-88
2022/04/14 00:56:04;;;;;;;7.10;3.25;;;11.80;99.90;;;;;;4939337;29;20186;-86
2022/04/14 00:58:30;;;;;;;5.25;3.53;;;12.00;99.90;;;;;;4928931;29;20205;-88
2022/04/14 01:00:56;;;;;;;7.30;3.83;;;11.60;99.90;;;;;;4909877;29;20185;-87
2022/04/14 01:03:22;;;;;;;6.33;3.50;;;;;;;;;;4913635;29;20182;-87
2022/04/14 01:05:48;;;;;;;10.23;3.70;;;11.30;99.90;;;;;;4918467;29;20201;-87
2022/04/14 01:08:17;;;;;;;3.97;3.03;;;11.30;99.90;;;;;;4915451;29;20214;-87
2022/04/14 01:10:48;;;;;;;18.85;4.10;;;11.10;99.90;;;;;;4917515;29;20190;-88
2022/04/14 01:13:17;;;;;;;7.13;3.50;;;11.20;99.90;;;;;;4914007;29;20186;-88
2022/04/14 01:15:45;;;;;;;3.92;2.90;;;11.20;99.90;;;;;;4916730;29;20661;-89
2022/04/14 01:18:10;;;;;;;6.47;3.88;;;12.10;99.90;;;;;;4912814;29;20213;-87
2022/04/14 01:20:36;;;;;;;3.47;2.77;;;;;;;;;;4932378;29;20221;-87
2022/04/14 01:23:03;;;;;;;4.32;3.35;;;11.30;99.90;;;;;;4918087;29;20368;-88
2022/04/14 01:25:32;;;;;;;8.93;3.97;;;;;;;;;;4932719;29;20210;-88
2022/04/14 01:27:58;;;;;;;7.95;3.58;;;11.30;99.90;;;;;;4929265;29;20201;-89
2022/04/14 01:30:24;;;;;;;3.85;2.97;;;11.30;99.90;;;;;;4913422;29;20191;-87
2022/04/14 01:32:50;;;;;;;10.43;4.10;;;11.30;99.90;;;;;;4918224;29;20185;-87
2022/04/14 01:35:16;;;;;;;10.80;4.00;;;;;;;;;;4920745;29;20198;-88
2022/04/14 01:37:41;;;;;;;5.30;3.33;;;11.40;99.90;;;;;;4913332;29;20296;-88
2022/04/14 01:40:08;;;;;;;6.80;3.40;;;11.40;99.90;;;;;;4931768;29;20291;-89
2022/04/14 01:42:34;;;;;;;7.15;3.70;;;;;;;;;;4917437;29;20205;-88
2022/04/14 01:45:00;;;;;;;4.32;2.95;;;;;;;;;;4914137;29;20191;-87
2022/04/14 01:47:25;;;;;;;5.93;3.87;;;11.40;99.90;;;;;;4914569;29;20214;-90
2022/04/14 01:49:52;;;;;;;6.40;3.70;;;11.40;99.90;;;;;;4918617;29;20438;-89
2022/04/14 01:52:18;;;;;;;5.78;4.05;;;11.30;99.90;;;;;;4917996;29;20201;-90
2022/04/14 01:54:44;;;;;;;8.93;5.20;;;11.30;99.90;;;;;;4916613;29;20192;-87
2022/04/14 01:57:09;;;;;;;13.30;4.00;;;11.50;99.90;;;;;;4913423;29;20465;-88
2022/04/14 01:59:35;;;;;;;6.87;4.13;;;;;;;;;;4914221;29;20260;-87
2022/04/14 02:02:01;;;;;;;8.80;5.17;;;11.40;99.90;;;;;;4933422;29;20185;-88
2022/04/14 02:04:27;;;;;;;7.23;3.77;;;;;;;;;;4932677;29;20452;-88
2022/04/14 02:06:52;;;;;;;15.50;6.03;;;11.40;99.90;;;;;;4933632;29;20211;-88
2022/04/14 02:09:18;;;;;;;10.13;6.43;;;11.30;99.90;;;;;;4936868;29;20447;-88
2022/04/14 02:11:44;;;;;;;10.87;5.97;;;;;;;;;;4931358;29;20196;-88
2022/04/14 02:14:09;;;;;;;12.23;5.00;;;11.30;99.90;;;;;;4916120;29;20193;-87
2022/04/14 02:16:35;;;;;;;12.37;8.20;;;11.20;99.90;;;;;;4930945;29;20475;-89
2022/04/14 02:19:01;;;;;;;13.80;7.87;;;;;;;;;;4932616;29;20253;-88
2022/04/14 02:21:26;;;;;;;15.73;7.43;;;11.30;99.90;;;;;;4929133;29;21100;-88
2022/04/14 02:23:52;;;;;;;11.43;4.90;;;;;;;;;;4917850;29;20524;-88
2022/04/14 02:26:19;;;;;;;10.23;6.70;;;;;;;;;;4933689;29;20201;-88
2022/04/14 02:28:44;;;;;;;8.15;4.70;;;11.10;99.90;;;;;;4931741;29;20511;-87
2022/04/14 02:31:10;;;;;;;15.83;7.47;;;11.00;99.90;;;;;;4933676;29;20185;-86
2022/04/14 02:33:36;;;;;;;9.23;5.60;;;11.00;99.90;;;;;;4934062;29;20223;-88
2022/04/14 02:36:02;;;;;;;8.90;5.80;;;;;;;;;;4932307;29;20177;-89
2022/04/14 02:38:28;;;;;;;14.70;6.53;;;;;;;;;;4935698;29;20263;-88
2022/04/14 02:40:54;;;;;;;14.10;5.63;;;;;;;;;;4919014;29;21166;-88
2022/04/14 02:43:21;;;;;;;10.77;5.63;;;11.00;99.90;;;;;;4933349;29;21319;-89
2022/04/14 02:45:46;;;;;;;12.25;7.00;;;11.00;99.90;;;;;;4916949;29;20441;-88
2022/04/14 02:48:12;;;;;;;18.60;5.97;;;12.00;99.90;;;;;;4933253;29;20230;-88
2022/04/14 02:50:38;;;;;;;13.00;6.60;;;11.00;99.90;;;;;;4918049;29;20177;-89
2022/04/14 02:53:04;;;;;;;6.90;5.40;;;11.00;99.90;;;;;;4933663;29;20181;-89
2022/04/14 02:55:30;;;;;;;11.10;6.70;;;;;;;;;;4917511;29;20200;-89
2022/04/14 02:57:56;;;;;;;11.00;5.73;;;;;;;;;;4931624;29;20212;-89
2022/04/14 03:00:21;;;;;;;11.55;7.88;;;10.80;99.90;;;;;;4912806;29;20544;-88
2022/04/14 03:02:47;;;;;;;19.97;11.10;;;;;;;;;;4915988;29;20254;-88
2022/04/14 03:05:13;;;;;;;14.13;7.30;;;10.90;99.90;;;;;;4930247;29;20637;-88
2022/04/14 03:07:41;;;;;;;18.03;8.30;;;10.90;99.90;;;;;;4913790;29;20473;-88
2022/04/14 03:10:07;;;;;;;9.65;5.45;;;10.50;99.90;;;;;;4913079;29;20264;-89
2022/04/14 03:12:59;;;;;;;19.35;11.18;;;10.90;99.90;;;;;;4913157;29;20190;-88
2022/04/14 03:15:27;;;;;;;23.35;14.95;;;11.20;99.90;;;;;;4907703;29;20198;-87
2022/04/14 03:17:54;;;;;;;25.00;11.98;;;11.10;99.90;;;;;;4913067;29;20201;-88
2022/04/14 03:20:20;;;;;;;24.55;13.90;;;11.40;99.90;;;;;;4913163;29;20189;-89
2022/04/14 03:22:46;;;;;;;24.73;12.67;;;;;;;;;;4912938;29;20204;-88
2022/04/14 03:25:13;;;;;;;23.58;11.70;;;11.30;99.90;;;;;;4914386;29;20209;-89
2022/04/14 03:27:39;;;;;;;18.20;9.73;;;;;;;;;;4911468;29;20289;-88
2022/04/14 03:30:06;;;;;;;17.60;11.20;;;11.30;99.90;;;;;;4910534;29;20178;-89
2022/04/14 03:32:38;;;;;;;17.23;11.65;;;11.20;99.90;;;;;;4926196;29;20229;-88
2022/04/14 03:35:04;;;;;;;17.83;10.55;;;11.20;99.90;;;;;;4913170;29;20213;-88
2022/04/14 03:37:32;;;;;;;20.63;8.10;;;;;;;;;;4926096;29;20240;-89
2022/04/14 03:39:58;;;;;;;18.48;9.75;;;;;;;;;;4912052;29;20200;-88
2022/04/14 03:42:24;;;;;;;17.30;9.70;;;;;;;;;;4927599;29;20601;-88
2022/04/14 03:44:50;;;;;;;20.88;12.27;;;;;;;;;;4913166;29;20444;-89
2022/04/14 03:47:16;;;;;;;18.35;11.65;;;;;;;;;;4912993;29;20240;-89
2022/04/14 03:49:41;;;;;;;28.17;12.83;;;11.00;99.90;;;;;;4913812;29;20190;-88
2022/04/14 03:52:07;;;;;;;19.90;12.13;;;10.90;99.90;;;;;;4911313;29;20431;-88
2022/04/14 03:54:33;;;;;;;11.70;8.90;;;11.00;99.90;;;;;;4913093;29;20209;-88
2022/04/14 03:56:59;;;;;;;15.93;9.77;;;10.90;99.90;;;;;;4913081;29;20583;-90
2022/04/14 03:59:27;;;;;;;16.40;10.90;;;;;;;;;;4911023;29;20194;-89
2022/04/14 04:01:53;;;;;;;25.75;13.40;;;10.80;99.90;;;;;;4898751;29;20194;-88
2022/04/14 04:04:19;;;;;;;27.10;16.00;;;;;;;;;;4898882;29;20194;-89
2022/04/14 04:06:45;;;;;;;25.88;16.30;;;;;;;;;;4916354;29;20209;-89
2022/04/14 04:09:12;;;;;;;29.80;17.63;;;;;;;;;;4911127;29;20261;-89
2022/04/14 04:11:38;;;;;;;29.27;17.90;;;;;;;;;;4897717;29;20197;-89
2022/04/14 04:14:04;;;;;;;34.50;18.87;;;;;;;;;;4917537;29;20178;-89
2022/04/14 04:16:30;;;;;;;32.70;20.60;;;;;;;;;;4922431;29;20465;-88
2022/04/14 04:18:56;;;;;;;41.93;19.23;;;;;;;;;;4900773;29;20540;-89
2022/04/14 04:21:24;;;;;;;31.37;18.73;;;;;;;;;;4922692;29;20533;-89
2022/04/14 04:23:50;;;;;;;34.92;20.40;;;;;;;;;;4922123;29;20544;-89
2022/04/14 04:26:16;;;;;;;38.73;22.23;;;;;;;;;;4919236;29;20233;-88
2022/04/14 04:28:42;;;;;;;37.63;23.00;;;;;;;;;;4913287;29;20528;-89
2022/04/14 04:31:08;;;;;;;37.67;21.17;;;11.80;99.90;;;;;;4900487;29;20448;-87
2022/04/14 04:33:33;;;;;;;36.93;22.70;;;12.00;99.90;;;;;;4900877;29;20453;-88
2022/04/14 04:35:59;;;;;;;48.83;25.90;;;;;;;;;;4922000;29;20198;-89
2022/04/14 04:38:24;;;;;;;50.03;30.13;;;12.00;99.90;;;;;;4902436;29;20618;-88
2022/04/14 04:40:50;;;;;;;42.47;28.80;;;;;;;;;;4913682;29;20597;-88
2022/04/14 04:43:16;;;;;;;49.50;26.27;;;;;;;;;;4892033;29;20213;-87
2022/04/14 04:45:42;;;;;;;49.47;28.55;;;11.80;99.90;;;;;;4911635;29;20955;-89
2022/04/14 04:48:08;;;;;;;46.67;29.63;;;;;;;;;;4914326;29;20213;-89
2022/04/14 04:50:34;;;;;;;47.17;28.73;;;11.80;99.90;;;;;;4898151;29;20185;-88
2022/04/14 04:53:00;;;;;;;55.73;33.33;;;11.80;99.90;;;;;;4895522;29;20856;-88
2022/04/14 04:55:25;;;;;;;51.33;30.50;;;11.90;99.90;;;;;;4896880;29;20182;-87
2022/04/14 04:57:51;;;;;;;50.00;30.87;;;12.10;99.90;;;;;;4911463;29;20202;-88
2022/04/14 05:00:17;;;;;;;55.00;31.20;;;;;;;;;;4911816;29;20188;-87
2022/04/14 05:02:42;;;;;;;50.30;29.25;;;12.30;99.90;;;;;;4910256;29;20292;-89
2022/04/14 05:05:09;;;;;;;50.30;28.67;;;;;;;;;;4923012;29;21075;-88
2022/04/14 05:07:34;;;;;;;51.28;28.70;;;12.40;99.90;;;;;;4928411;29;20232;-89
2022/04/14 05:10:00;;;;;;;47.47;26.20;;;12.60;99.90;;;;;;4931734;29;20566;-88
2022/04/14 05:12:26;;;;;;;43.33;28.27;;;12.80;99.90;;;;;;4911860;29;20900;-87
2022/04/14 05:14:51;;;;;;;48.43;28.13;;;15.00;99.90;;;;;;4911436;29;20444;-89
2022/04/14 05:17:18;;;;;;;43.70;27.97;;;13.20;99.90;;;;;;4913005;29;20460;-88
2022/04/14 05:19:44;;;;;;;44.67;27.80;;;13.40;99.90;;;;;;4913305;29;20698;-89
2022/04/14 05:22:09;;;;;;;44.67;30.00;;;13.70;99.90;;;;;;4912110;29;20299;-88
2022/04/14 05:24:35;;;;;;;40.77;25.07;;;;;;;;;;4916177;29;20233;-88
2022/04/14 05:27:01;;;;;;;42.77;28.47;;;14.10;99.90;;;;;;4912323;29;20217;-90
2022/04/14 05:29:30;;;;;;;57.37;29.00;;;14.10;99.90;;;;;;4913166;29;20444;-89
2022/04/14 05:31:56;;;;;;;44.75;27.77;;;14.10;99.90;;;;;;4910854;29;20678;-90
2022/04/14 05:34:22;;;;;;;40.90;27.63;;;;;;;;;;4917033;29;20189;-89
2022/04/14 05:36:48;;;;;;;50.93;30.20;;;13.80;99.90;;;;;;4927598;29;20205;-88
2022/04/14 05:39:13;;;;;;;51.27;30.77;;;13.50;99.90;;;;;;4911880;29;20443;-88
2022/04/14 05:41:39;;;;;;;48.10;30.27;;;13.60;99.90;;;;;;4931476;29;20248;-89
2022/04/14 05:44:05;;;;;;;40.10;25.37;;;;;;;;;;4928240;29;21115;-90
2022/04/14 05:46:30;;;;;;;44.40;26.60;;;14.90;99.90;;;;;;4911968;29;20753;-89
2022/04/14 05:48:56;;;;;;;50.47;28.63;;;;;;;;;;4915334;29;20292;-89
2022/04/14 05:51:22;;;;;;;43.23;28.90;;;14.50;99.90;;;;;;4918866;29;20264;-89
2022/04/14 05:53:53;;;;;;;43.70;29.13;;;;;;;;;;4938549;29;20433;-90
2022/04/14 05:56:19;;;;;;;42.10;28.60;;;13.70;99.90;;;;;;4916996;29;20256;-89
2022/04/14 05:58:45;;;;;;;46.70;28.58;;;13.70;99.90;;;;;;4931663;29;20288;-89
2022/04/14 06:01:11;;;;;;;50.42;30.80;;;14.10;99.90;;;;;;4931107;29;20187;-89
2022/04/14 06:03:38;;;;;;;43.73;28.33;;;;;;;;;;4915107;29;20279;-90
2022/04/14 06:06:04;;;;;;;47.88;28.58;;;15.00;99.90;;;;;;4931298;29;20211;-89
2022/04/14 06:08:30;;;;;;;47.42;28.13;;;15.10;99.90;;;;;;4931015;29;20223;-89
2022/04/14 06:10:55;;;;;;;41.90;28.77;;;;;;;;;;4931633;29;20177;-88
2022/04/14 06:13:21;;;;;;;39.33;26.60;;;;;;;;;;4915778;29;20181;-90
2022/04/14 06:15:47;;;;;;;41.20;26.17;;;17.40;99.90;;;;;;4928933;29;20437;-89
2022/04/14 06:18:13;;;;;;;42.70;25.17;;;19.40;99.90;;;;;;4928270;29;20579;-88
2022/04/14 06:20:38;;;;;;;34.90;23.20;;;;;;;;;;4949691;28;20177;-88
2022/04/14 06:23:04;;;;;;;32.67;24.00;;;;;;;;;;4923828;29;20283;-89
2022/04/14 06:25:30;;;;;;;36.33;22.07;;;18.00;99.90;;;;;;4911545;29;20925;-89
2022/04/14 06:27:56;;;;;;;28.03;20.63;;;19.20;99.90;;;;;;4926894;29;20480;-88
2022/04/14 06:30:22;;;;;;;36.50;22.47;;;;;;;;;;4929944;29;20185;-89
2022/04/14 06:32:57;;;;;;;29.03;21.00;;;19.90;99.90;;;;;;4927513;29;20185;-89
2022/04/14 06:35:23;;;;;;;35.80;20.27;;;;;;;;;;4909800;29;20440;-88
2022/04/14 06:37:49;;;;;;;36.67;21.80;;;;;;;;;;4925469;29;20636;-89
2022/04/14 06:40:15;;;;;;;35.53;23.00;;;;;;;;;;4917300;29;20548;-88
2022/04/14 06:42:40;;;;;;;36.40;22.43;;;;;;;;;;4922843;29;20562;-89
2022/04/14 06:45:07;;;;;;;28.83;20.80;;;19.30;99.90;;;;;;4926870;29;20448;-89
2022/04/14 06:47:33;;;;;;;32.33;20.40;;;;;;;;;;4912543;29;20587;-89
2022/04/14 06:49:59;;;;;;;30.50;20.43;;;;;;;;;;4938050;29;20532;-88
2022/04/14 06:52:25;;;;;;;31.53;21.40;;;;;;;;;;4927384;29;20464;-89
2022/04/14 06:54:51;;;;;;;30.27;21.30;;;;;;;;;;4930982;29;20441;-88
2022/04/14 06:57:17;;;;;;;27.73;18.60;;;21.50;99.90;;;;;;4927096;29;20568;-89
2022/04/14 06:59:43;;;;;;;32.90;22.43;;;20.90;99.90;;;;;;4901227;29;20454;-88
2022/04/14 07:02:09;;;;;;;29.07;20.50;;;;;;;;;;4907468;29;20453;-89
2022/04/14 07:04:35;;;;;;;34.83;20.27;;;20.40;99.90;;;;;;4909603;29;20189;-89
2022/04/14 07:07:02;;;;;;;31.43;20.60;;;20.40;99.90;;;;;;4905115;29;20465;-89
2022/04/14 07:09:32;;;;;;;28.00;20.27;;;21.30;99.90;;;;;;4907585;29;20186;-89
2022/04/14 07:11:59;;;;;;;30.97;20.07;;;22.70;99.90;;;;;;4909438;29;20511;-89
2022/04/14 07:14:26;;;;;;;34.57;20.90;;;;;;;;;;4908009;29;20449;-89
2022/04/14 07:16:53;;;;;;;32.63;20.30;;;;;;;;;;4918788;29;20939;-88
2022/04/14 07:19:18;;;;;;;27.50;19.80;;;;;;;;;;4906500;29;20438;-90
2022/04/14 07:21:45;;;;;;;30.17;19.70;;;;;;;;;;4921456;29;21643;-89
2022/04/14 07:24:11;;;;;;;31.37;20.50;;;;;;;;;;4914400;29;20490;-89
2022/04/14 07:26:36;;;;;;;27.50;20.20;;;22.50;99.90;;;;;;4909830;29;20457;-88
2022/04/14 07:29:03;;;;;;;29.30;18.53;;;21.90;99.90;;;;;;4909025;29;20472;-90
2022/04/14 07:31:31;;;;;;;33.50;22.57;;;;;;;;;;4906666;29;20198;-89
2022/04/14 07:33:57;;;;;;;33.23;23.00;;;;;;;;;;4926090;29;20968;-89
2022/04/14 07:36:23;;;;;;;33.00;20.63;;;;;;;;;;4921840;29;20471;-89
2022/04/14 07:38:49;;;;;;;27.07;19.07;;;;;;;;;;4903213;29;20473;-89
2022/04/14 07:41:15;;;;;;;30.40;20.10;;;;;;;;;;4919062;29;20454;-89
2022/04/14 07:43:40;;;;;;;31.60;19.03;;;22.30;99.90;;;;;;4904454;29;20445;-89
2022/04/14 07:46:06;;;;;;;28.30;19.00;;;22.50;99.90;;;;;;4906049;29;20445;-89
2022/04/14 07:48:32;;;;;;;25.10;20.77;;;;;;;;;;4915810;29;20206;-89
2022/04/14 07:51:00;;;;;;;25.50;18.80;;;22.60;99.90;;;;;;4936626;29;20185;-91
2022/04/14 07:53:26;;;;;;;30.77;19.90;;;;;;;;;;4912224;29;20448;-90
2022/04/14 07:55:53;;;;;;;29.23;19.37;;;;;;;;;;4911056;29;20441;-89
2022/04/14 07:58:20;;;;;;;26.33;18.57;;;;;;;;;;4913419;29;20838;-90
2022/04/14 08:00:46;;;;;;;28.33;20.50;;;;;;;;;;4909973;29;20462;-89
2022/04/14 08:03:13;;;;;;;27.80;20.40;;;20.20;99.90;;;;;;4912155;29;20829;-89
2022/04/14 08:05:45;;;;;;;30.53;20.17;;;20.20;99.90;;;;;;4912991;29;20446;-90
2022/04/14 08:08:15;;;;;;;27.17;20.90;;;19.70;99.90;;;;;;4911175;29;20512;-90
2022/04/14 08:10:53;;;;;;;31.47;19.50;;;20.50;99.90;;;;;;4914780;29;20438;-90
2022/04/14 08:16:06;;;;;;;27.70;20.00;;;23.30;99.90;;;;;;4882262;29;20434;-91
2022/04/14 08:18:35;;;;;;;26.63;19.70;;;24.40;99.90;;;;;;4909354;29;20457;-90
2022/04/14 08:21:01;;;;;;;27.80;18.57;;;;;;;;;;4911834;29;20544;-89
2022/04/14 08:23:28;;;;;;;27.00;18.70;;;25.20;99.90;;;;;;4927826;29;20536;-90
2022/04/14 08:25:53;;;;;;;23.67;18.90;;;24.20;99.90;;;;;;4908275;29;20522;-89
2022/04/14 08:28:20;;;;;;;22.00;17.50;;;;;;;;;;4909895;29;20465;-89
2022/04/14 08:30:46;;;;;;;28.47;19.40;;;;;;;;;;4926968;29;20297;-90
2022/04/14 08:33:12;;;;;;;25.53;18.13;;;24.80;99.90;;;;;;4927973;29;20433;-89
2022/04/14 08:35:39;;;;;;;29.20;17.70;;;;;;;;;;4913952;29;20438;-89
2022/04/14 08:38:09;;;;;;;24.90;19.13;;;25.90;99.90;;;;;;4912514;29;20470;-89
2022/04/14 08:40:40;;;;;;;25.40;16.40;;;26.20;99.90;;;;;;4910785;29;20452;-90
2022/04/14 08:43:07;;;;;;;23.27;17.70;;;26.30;98.70;;;;;;4915910;29;20455;-89
2022/04/14 08:45:37;;;;;;;23.60;16.80;;;26.30;99.00;;;;;;4909115;29;20446;-90
2022/04/14 08:48:04;;;;;;;28.50;18.70;;;25.90;98.60;;;;;;4909530;29;20476;-90
2022/04/14 08:50:32;;;;;;;23.20;16.30;;;25.90;99.10;;;;;;4913523;29;20449;-90
2022/04/14 08:52:58;;;;;;;31.37;18.00;;;;;;;;;;4931842;29;20448;-89
2022/04/14 08:55:25;;;;;;;27.30;17.77;;;26.80;97.30;;;;;;4918622;29;20495;-89
2022/04/14 08:57:51;;;;;;;23.17;18.00;;;;;;;;;;4911818;29;20463;-92
2022/04/14 09:00:17;;;;;;;23.27;18.00;;;;;;;;;;4928319;29;20453;-87
2022/04/14 09:02:45;;;;;;;26.03;16.90;;;27.20;95.10;;;;;;4926306;29;20445;-91
2022/04/14 09:05:14;;;;;;;28.27;18.53;;;27.20;95.40;;;;;;4908996;29;20511;-89
2022/04/14 09:07:41;;;;;;;22.93;17.13;;;;;;;;;;4925915;29;22879;-88
2022/04/14 09:10:08;;;;;;;27.73;17.70;;;27.10;94.80;;;;;;4911368;29;20441;-89
2022/04/14 09:12:37;;;;;;;24.40;18.40;;;26.60;95.00;;;;;;4927232;29;20471;-90
2022/04/14 09:15:04;;;;;;;21.47;16.60;;;26.30;96.50;;;;;;4913190;29;20437;-89
2022/04/14 09:17:30;;;;;;;31.17;18.57;;;;;;;;;;4913873;29;20465;-89
2022/04/14 09:19:56;;;;;;;20.30;16.57;;;;;;;;;;4956680;29;20435;-89
2022/04/14 09:22:23;;;;;;;23.30;18.50;;;;;;;;;;4934322;28;20459;-89
2022/04/14 09:24:54;;;;;;;24.90;19.77;;;26.50;94.80;;;;;;4927813;29;20487;-89
2022/04/14 09:27:37;;;;;;;25.27;18.10;;;25.60;96.80;;;;;;4927485;29;20479;-88
2022/04/14 09:30:08;;;;;;;24.37;17.07;;;25.10;97.10;;;;;;4927726;29;21074;-90
2022/04/14 09:32:39;;;;;;;21.37;18.43;;;25.30;98.00;;;;;;4929159;29;20458;-89
2022/04/14 09:35:22;;;;;;;22.40;17.33;;;25.20;98.00;;;;;;4924573;29;20470;-90
2022/04/14 09:38:00;;;;;;;24.17;19.40;;;25.30;96.60;;;;;;4929397;29;20556;-89
2022/04/14 09:40:30;;;;;;;27.90;17.63;;;26.30;98.00;;;;;;4930351;29;20447;-90
2022/04/14 09:42:56;;;;;;;30.30;17.90;;;;;;;;;;4927086;29;20513;-88
2022/04/14 09:45:26;;;;;;;26.73;18.30;;;25.30;96.90;;;;;;4910904;29;21102;-88
2022/04/14 09:47:53;;;;;;;23.67;17.27;;;25.70;98.70;;;;;;4925915;29;20482;-89
2022/04/14 09:50:29;;;;;;;20.17;17.77;;;25.60;97.20;;;;;;4930667;29;20491;-89
2022/04/14 09:53:09;;;;;;;25.70;17.13;;;25.60;96.90;;;;;;4939120;29;20446;-89
2022/04/14 09:55:35;;;;;;;25.40;17.67;;;26.60;95.00;;;;;;4928085;29;20958;-89
2022/04/14 09:58:06;;;;;;;23.30;17.80;;;26.60;95.40;;;;;;4923253;29;20471;-87
2022/04/14 10:00:57;;;;;;;31.43;19.47;;;26.30;95.50;;;;;;4907521;29;20548;-88
2022/04/14 10:03:23;;;;;;;25.23;18.67;;;;;;;;;;4906957;29;21281;-88
2022/04/14 10:05:51;;;;;;;29.50;18.97;;;25.10;97.50;;;;;;4907049;29;20447;-89
2022/04/14 10:08:17;;;;;;;23.70;18.33;;;24.80;97.20;;;;;;4904709;29;22126;-87
2022/04/14 10:10:45;;;;;;;23.73;19.20;;;24.70;97.20;;;;;;4908180;29;20486;-88
2022/04/14 10:13:18;;;;;;;29.60;18.23;;;24.70;97.50;;;;;;4905566;29;20454;-90
2022/04/14 10:15:45;;;;;;;24.13;17.00;;;24.30;98.80;;;;;;4905915;29;20446;-89
2022/04/14 10:18:14;;;;;;;33.30;18.50;;;23.80;99.90;;;;;;4905762;29;20516;-89
2022/04/14 10:20:45;;;;;;;26.87;18.83;;;23.10;99.90;;;;;;4907705;29;20449;-90
2022/04/14 10:23:13;;;;;;;30.83;18.13;;;21.90;99.90;;;;;;4915220;29;20460;-90
2022/04/14 10:25:38;;;;;;;23.53;17.40;;;21.30;99.90;;;;;;4906026;29;20524;-89
2022/04/14 10:28:12;;;;;;;26.67;17.70;;;21.10;99.90;;;;;;4904415;29;20470;-89
2022/04/14 10:30:38;;;;;;;27.43;17.60;;;21.20;99.90;;;;;;4906501;29;20185;-90
2022/04/14 10:33:04;;;;;;;28.03;19.23;;;20.50;99.90;;;;;;4919651;29;20446;-89
2022/04/14 10:35:31;;;;;;;24.00;18.27;;;20.80;99.90;;;;;;4905502;29;20454;-89
2022/04/14 10:38:19;;;;;;;27.10;18.03;;;20.80;99.90;;;;;;4906519;29;20473;-90
2022/04/14 10:41:13;;;;;;;29.53;19.47;;;20.60;99.90;;;;;;4905274;29;20480;-90
2022/04/14 10:43:46;;;;;;;26.93;18.00;;;20.40;99.90;;;;;;4894935;29;20453;-89
2022/04/14 10:46:15;;;;;;;25.07;18.40;;;20.60;99.90;;;;;;4907572;29;20545;-90
2022/04/14 10:48:41;;;;;;;25.47;18.70;;;20.60;99.90;;;;;;4926997;29;20473;-93
2022/04/14 10:51:29;;;;;;;25.50;18.20;;;20.80;99.90;;;;;;4928999;29;20476;-91
2022/04/14 10:54:04;;;;;;;29.87;20.07;;;21.00;99.90;;;;;;4912000;29;20464;-91
2022/04/14 10:56:42;;;;;;;25.63;17.57;;;20.70;99.90;;;;;;4925182;29;20568;-90
2022/04/14 10:59:46;;;;;;;25.67;19.00;;;20.90;99.90;;;;;;4908743;29;20467;-91
2022/04/14 11:02:12;;;;;;;36.20;17.90;;;21.20;99.90;;;;;;4836037;29;20513;-90
2022/04/14 11:04:46;;;;;;;23.43;16.80;;;21.20;99.90;;;;;;4823291;29;20521;-91
2022/04/14 11:07:15;;;;;;;22.80;18.07;;;21.40;99.90;;;;;;4863363;29;20470;-91
2022/04/14 11:09:49;;;;;;;24.33;16.30;;;21.50;99.90;;;;;;4922803;29;20446;-89
2022/04/14 11:12:23;;;;;;;29.67;16.77;;;21.50;99.90;;;;;;4908969;29;20472;-90
2022/04/14 11:14:53;;;;;;;24.80;16.17;;;21.60;99.90;;;;;;4924054;29;20441;-89
2022/04/14 11:17:32;;;;;;;22.90;16.60;;;21.60;99.90;;;;;;4926096;29;20469;-91
2022/04/14 11:20:21;;;;;;;21.23;15.07;;;21.30;99.90;;;;;;4909452;29;20445;-89
2022/04/14 11:23:12;;;;;;;24.40;18.20;;;21.30;99.90;;;;;;4911826;29;20445;-89
2022/04/14 11:25:44;;;;;;;24.77;19.00;;;21.20;99.90;;;;;;4927720;29;20449;-90
2022/04/14 11:28:26;;;;;;;23.20;17.77;;;20.90;99.90;;;;;;4914906;29;20469;-90
2022/04/14 11:30:54;;;;;;;25.07;17.60;;;20.70;99.90;;;;;;4911121;29;20441;-91
2022/04/14 11:33:32;;;;;;;26.20;16.80;;;21.00;99.90;;;;;;4909808;29;20959;-90
2022/04/14 11:36:13;;;;;;;20.70;17.90;;;20.70;99.90;;;;;;4911445;29;20445;-91
2022/04/14 11:38:52;;;;;;;24.87;18.33;;;20.70;99.90;;;;;;4912819;29;20481;-90
2022/04/14 11:41:50;;;;;;;25.97;17.43;;;20.50;99.90;;;;;;4913041;29;20444;-90
2022/04/14 11:44:17;;;;;;;28.87;19.57;;;20.20;99.90;;;;;;4912734;29;20536;-89
2022/04/14 11:46:43;;;;;;;27.77;19.40;;;;;;;;;;4914531;29;20477;-90
2022/04/14 11:49:12;;;;;;;26.17;20.07;;;20.50;99.90;;;;;;4907905;29;20476;-90
2022/04/14 11:51:47;;;;;;;32.17;20.77;;;20.70;99.90;;;;;;4925987;29;20437;-90
2022/04/14 11:54:18;;;;;;;24.93;20.10;;;20.40;99.90;;;;;;4914494;29;21334;-91
2022/04/14 11:56:49;;;;;;;27.13;17.47;;;20.30;99.90;;;;;;4919999;29;20462;-87
2022/04/14 11:59:18;;;;;;;25.40;18.90;;;21.40;99.90;;;;;;4904837;29;21382;-88
2022/04/14 12:01:49;;;;;;;24.10;17.20;;;20.90;99.90;;;;;;4893536;29;20445;-87
2022/04/14 12:04:14;;;;;;;33.80;20.10;;;22.30;99.90;;;;;;4894240;29;20524;-87
2022/04/14 12:06:51;;;;;;;39.30;22.30;;;19.90;99.90;;;;;;4912250;29;20474;-88
2022/04/14 12:09:20;;;;;;;32.87;20.83;;;19.90;99.90;;;;;;4896045;29;20205;-87
2022/04/14 12:11:46;;;;;;;36.43;23.33;;;19.60;99.90;;;;;;4913501;29;20935;-88
2022/04/14 12:14:13;;;;;;;41.40;23.30;;;;;;;;;;4899940;29;20458;-88
2022/04/14 12:16:59;;;;;;;32.63;22.73;;;19.60;99.90;;;;;;4904767;29;20526;-87
2022/04/14 12:19:46;;;;;;;44.00;22.47;;;19.80;99.90;;;;;;4932251;29;20414;-88
2022/04/14 12:22:13;;;;;;;39.23;22.30;;;19.60;99.90;;;;;;4918412;29;21083;-89
2022/04/14 12:24:45;;;;;;;32.57;23.17;;;19.60;99.90;;;;;;4912211;29;20537;-89
2022/04/14 12:27:16;;;;;;;34.13;23.73;;;19.50;99.90;;;;;;4911836;29;20450;-90
2022/04/14 12:29:42;;;;;;;30.77;22.50;;;19.80;99.90;;;;;;4910795;29;20437;-88
2022/04/14 12:32:10;;;;;;;29.40;23.20;;;19.30;99.90;;;;;;4911286;29;20501;-88
2022/04/14 12:34:40;;;;;;;30.67;21.13;;;19.30;99.90;;;;;;4906618;29;21163;-89
2022/04/14 12:37:13;;;;;;;33.20;22.50;;;19.60;99.90;;;;;;4905870;29;20453;-90
2022/04/14 12:39:54;;;;;;;33.97;22.40;;;19.90;99.90;;;;;;4904599;29;20441;-88
2022/04/14 12:42:20;;;;;;;36.00;19.60;;;;;;;;;;4903758;29;20426;-90
2022/04/14 12:44:46;;;;;;;26.47;18.57;;;;;;;;;;4888351;29;20414;-90
2022/04/14 12:47:13;;;;;;;26.60;18.87;;;;;;;;;;4904461;29;21940;-87
2022/04/14 12:49:38;;;;;;;26.53;19.90;;;21.10;99.90;;;;;;4904871;29;20442;-90
2022/04/14 12:52:07;;;;;;;27.73;19.90;;;;;;;;;;4905037;29;20434;-89
2022/04/14 12:54:34;;;;;;;37.37;21.13;;;21.00;99.90;;;;;;4905725;29;20204;-89
2022/04/14 12:57:00;;;;;;;31.83;21.40;;;;;;;;;;4907933;29;20468;-90
2022/04/14 12:59:27;;;;;;;28.73;20.87;;;21.00;99.90;;;;;;4912251;29;21242;-89
2022/04/14 13:02:04;;;;;;;28.60;18.80;;;21.40;99.90;;;;;;4906821;29;20452;-89
2022/04/14 13:04:34;;;;;;;32.10;20.83;;;21.50;99.90;;;;;;4905048;29;20564;-90
2022/04/14 13:07:05;;;;;;;24.90;20.77;;;21.40;99.90;;;;;;4908762;29;20461;-89
2022/04/14 13:09:34;;;;;;;35.90;21.50;;;21.20;99.90;;;;;;4921366;29;20472;-90
2022/04/14 13:12:00;;;;;;;26.60;19.27;;;21.00;99.90;;;;;;4908035;29;20516;-89
2022/04/14 13:14:30;;;;;;;27.20;19.57;;;20.80;99.90;;;;;;4907732;29;20944;-89